sensor_id;sensor_type;location;lat;lon;timestamp;temperature;humidity
35240;DHT22;21376;50.954;4.716;2023-05-10T00:01:15;13.40;99.90
35240;DHT22;21376;50.954;4.716;2023-05-10T00:03:41;13.50;99.90
35240;DHT22;21376;50.954;4.716;2023-05-10T00:08:35;13.50;99.90
35240;DHT22;21376;50.954;4.716;2023-05-10T00:13:33;13.50;99.90
35240;DHT22;21376;50.954;4.716;2023-05-10T00:16:02;13.50;99.90
35240;DHT22;21376;50.954;4.716;2023-05-10T00:18:31;13.60;99.90
35240;DHT22;21376;50.954;4.716;2023-05-10T00:23:34;13.80;99.90
35240;DHT22;21376;50.954;4.716;2023-05-10T00:26:18;13.70;99.90
35240;DHT22;21376;50.954;4.716;2023-05-10T00:31:13;13.60;99.90
35240;DHT22;21376;50.954;4.716;2023-05-10T00:33:47;13.70;99.90
35240;DHT22;21376;50.954;4.716;2023-05-10T00:38:44;13.50;99.90
35240;DHT22;21376;50.954;4.716;2023-05-10T00:43:39;13.40;99.90
35240;DHT22;21376;50.954;4.716;2023-05-10T00:48:37;13.30;99.90
35240;DHT22;21376;50.954;4.716;2023-05-10T00:51:03;13.30;99.90
35240;DHT22;21376;50.954;4.716;2023-05-10T00:53:30;13.40;99.90
35240;DHT22;21376;50.954;4.716;2023-05-10T00:55:59;13.40;99.90
35240;DHT22;21376;50.954;4.716;2023-05-10T00:58:30;13.40;99.90
35240;DHT22;21376;50.954;4.716;2023-05-10T01:00:59;13.50;99.90
35240;DHT22;21376;50.954;4.716;2023-05-10T01:03:28;13.50;99.90
35240;DHT22;21376;50.954;4.716;2023-05-10T01:05:54;13.50;99.90
35240;DHT22;21376;50.954;4.716;2023-05-10T01:08:21;13.50;99.90
35240;DHT22;21376;50.954;4.716;2023-05-10T01:10:47;13.60;99.90
35240;DHT22;21376;50.954;4.716;2023-05-10T01:15:43;13.50;99.90
35240;DHT22;21376;50.954;4.716;2023-05-10T01:18:10;13.60;99.90
35240;DHT22;21376;50.954;4.716;2023-05-10T01:34:08;13.60;99.90
35240;DHT22;21376;50.954;4.716;2023-05-10T01:39:15;13.40;99.90
35240;DHT22;21376;50.954;4.716;2023-05-10T01:41:54;13.40;99.90
35240;DHT22;21376;50.954;4.716;2023-05-10T01:47:06;13.50;99.90
35240;DHT22;21376;50.954;4.716;2023-05-10T01:49:35;13.50;99.90
35240;DHT22;21376;50.954;4.716;2023-05-10T01:52:15;13.40;99.90
35240;DHT22;21376;50.954;4.716;2023-05-10T01:59:42;13.50;99.90
35240;DHT22;21376;50.954;4.716;2023-05-10T02:02:10;13.50;99.90
35240;DHT22;21376;50.954;4.716;2023-05-10T02:04:40;13.40;99.90
35240;DHT22;21376;50.954;4.716;2023-05-10T02:07:07;13.30;99.90
35240;DHT22;21376;50.954;4.716;2023-05-10T02:09:37;13.40;99.90
35240;DHT22;21376;50.954;4.716;2023-05-10T02:14:46;13.50;99.90
35240;DHT22;21376;50.954;4.716;2023-05-10T02:19:44;13.50;99.90
35240;DHT22;21376;50.954;4.716;2023-05-10T02:22:14;13.50;99.90
35240;DHT22;21376;50.954;4.716;2023-05-10T02:24:44;13.50;99.90
35240;DHT22;21376;50.954;4.716;2023-05-10T02:29:39;13.50;99.90
35240;DHT22;21376;50.954;4.716;2023-05-10T02:39:49;13.30;99.90
35240;DHT22;21376;50.954;4.716;2023-05-10T02:48:00;13.20;99.90
35240;DHT22;21376;50.954;4.716;2023-05-10T02:50:29;13.30;99.90
35240;DHT22;21376;50.954;4.716;2023-05-10T02:53:09;13.30;99.90
35240;DHT22;21376;50.954;4.716;2023-05-10T02:55:42;13.40;99.90
35240;DHT22;21376;50.954;4.716;2023-05-10T02:58:11;13.50;99.90
35240;DHT22;21376;50.954;4.716;2023-05-10T03:00:40;13.50;99.90
35240;DHT22;21376;50.954;4.716;2023-05-10T03:05:38;13.60;99.90
35240;DHT22;21376;50.954;4.716;2023-05-10T03:08:19;13.50;99.90
35240;DHT22;21376;50.954;4.716;2023-05-10T03:10:59;13.80;99.90
35240;DHT22;21376;50.954;4.716;2023-05-10T03:16:15;14.00;99.90
35240;DHT22;21376;50.954;4.716;2023-05-10T03:21:11;14.00;99.90
35240;DHT22;21376;50.954;4.716;2023-05-10T03:23:50;14.10;99.90
35240;DHT22;21376;50.954;4.716;2023-05-10T03:26:20;14.10;99.90
35240;DHT22;21376;50.954;4.716;2023-05-10T03:28:52;14.00;99.90
35240;DHT22;21376;50.954;4.716;2023-05-10T03:40:02;13.80;99.90
35240;DHT22;21376;50.954;4.716;2023-05-10T03:42:28;13.70;99.90
35240;DHT22;21376;50.954;4.716;2023-05-10T03:45:00;13.60;99.90
35240;DHT22;21376;50.954;4.716;2023-05-10T03:47:27;13.60;99.90
35240;DHT22;21376;50.954;4.716;2023-05-10T03:49:56;13.60;99.90
35240;DHT22;21376;50.954;4.716;2023-05-10T03:52:25;13.70;99.90
35240;DHT22;21376;50.954;4.716;2023-05-10T03:54:51;13.50;99.90
35240;DHT22;21376;50.954;4.716;2023-05-10T03:57:19;13.50;99.90
35240;DHT22;21376;50.954;4.716;2023-05-10T03:59:45;13.40;99.90
35240;DHT22;21376;50.954;4.716;2023-05-10T04:02:12;13.40;99.90
35240;DHT22;21376;50.954;4.716;2023-05-10T04:04:39;13.40;99.90
35240;DHT22;21376;50.954;4.716;2023-05-10T04:07:05;13.30;99.90
35240;DHT22;21376;50.954;4.716;2023-05-10T04:09:41;13.20;99.90
35240;DHT22;21376;50.954;4.716;2023-05-10T04:12:08;13.10;99.90
35240;DHT22;21376;50.954;4.716;2023-05-10T04:14:35;13.20;99.90
35240;DHT22;21376;50.954;4.716;2023-05-10T04:17:03;13.10;99.90
35240;DHT22;21376;50.954;4.716;2023-05-10T04:19:29;13.20;99.90
35240;DHT22;21376;50.954;4.716;2023-05-10T04:21:58;13.20;99.90
35240;DHT22;21376;50.954;4.716;2023-05-10T04:24:27;13.10;99.90
35240;DHT22;21376;50.954;4.716;2023-05-10T04:26:55;13.10;99.90
35240;DHT22;21376;50.954;4.716;2023-05-10T04:29:28;13.10;99.90
35240;DHT22;21376;50.954;4.716;2023-05-10T04:32:07;13.10;99.90
35240;DHT22;21376;50.954;4.716;2023-05-10T04:34:38;13.10;99.90
35240;DHT22;21376;50.954;4.716;2023-05-10T04:37:05;13.00;99.90
35240;DHT22;21376;50.954;4.716;2023-05-10T04:39:34;13.10;99.90
35240;DHT22;21376;50.954;4.716;2023-05-10T04:42:03;12.90;99.90
35240;DHT22;21376;50.954;4.716;2023-05-10T04:44:34;12.70;99.90
35240;DHT22;21376;50.954;4.716;2023-05-10T04:47:01;12.90;99.90
35240;DHT22;21376;50.954;4.716;2023-05-10T04:49:29;13.00;99.90
35240;DHT22;21376;50.954;4.716;2023-05-10T04:51:58;13.00;99.90
35240;DHT22;21376;50.954;4.716;2023-05-10T04:54:27;13.00;99.90
35240;DHT22;21376;50.954;4.716;2023-05-10T05:04:21;13.10;99.90
35240;DHT22;21376;50.954;4.716;2023-05-10T05:06:59;13.10;99.90
35240;DHT22;21376;50.954;4.716;2023-05-10T05:11:58;13.10;99.90
35240;DHT22;21376;50.954;4.716;2023-05-10T05:14:24;13.10;99.90
35240;DHT22;21376;50.954;4.716;2023-05-10T05:16:52;13.20;99.90
35240;DHT22;21376;50.954;4.716;2023-05-10T05:19:17;13.30;99.90
35240;DHT22;21376;50.954;4.716;2023-05-10T05:21:43;13.50;99.90
35240;DHT22;21376;50.954;4.716;2023-05-10T05:24:10;13.60;99.90
35240;DHT22;21376;50.954;4.716;2023-05-10T05:29:07;13.60;99.90
35240;DHT22;21376;50.954;4.716;2023-05-10T05:31:33;13.50;99.90
35240;DHT22;21376;50.954;4.716;2023-05-10T05:34:07;13.40;99.90
35240;DHT22;21376;50.954;4.716;2023-05-10T05:36:35;13.60;99.90
35240;DHT22;21376;50.954;4.716;2023-05-10T05:39:02;13.60;99.90
35240;DHT22;21376;50.954;4.716;2023-05-10T05:41:30;13.70;99.90
35240;DHT22;21376;50.954;4.716;2023-05-10T05:43:56;13.70;99.90
35240;DHT22;21376;50.954;4.716;2023-05-10T05:46:27;13.70;99.90
35240;DHT22;21376;50.954;4.716;2023-05-10T05:48:53;13.60;99.90
35240;DHT22;21376;50.954;4.716;2023-05-10T05:51:19;13.60;99.90
35240;DHT22;21376;50.954;4.716;2023-05-10T05:53:48;13.60;99.90
35240;DHT22;21376;50.954;4.716;2023-05-10T05:56:14;13.70;99.90
35240;DHT22;21376;50.954;4.716;2023-05-10T05:58:43;13.70;99.90
35240;DHT22;21376;50.954;4.716;2023-05-10T06:01:13;13.70;99.90
35240;DHT22;21376;50.954;4.716;2023-05-10T06:03:40;13.80;99.90
35240;DHT22;21376;50.954;4.716;2023-05-10T06:06:07;13.90;99.90
35240;DHT22;21376;50.954;4.716;2023-05-10T06:08:35;14.10;99.90
35240;DHT22;21376;50.954;4.716;2023-05-10T06:11:03;14.20;99.90
35240;DHT22;21376;50.954;4.716;2023-05-10T06:13:29;14.50;99.90
35240;DHT22;21376;50.954;4.716;2023-05-10T06:15:58;14.60;99.90
35240;DHT22;21376;50.954;4.716;2023-05-10T06:18:25;14.60;99.90
35240;DHT22;21376;50.954;4.716;2023-05-10T06:20:51;14.60;99.90
35240;DHT22;21376;50.954;4.716;2023-05-10T06:25:56;14.60;99.90
35240;DHT22;21376;50.954;4.716;2023-05-10T06:28:25;14.60;99.90
35240;DHT22;21376;50.954;4.716;2023-05-10T06:30:51;14.60;99.90
35240;DHT22;21376;50.954;4.716;2023-05-10T06:33:16;14.60;99.90
35240;DHT22;21376;50.954;4.716;2023-05-10T06:35:42;14.60;99.90
35240;DHT22;21376;50.954;4.716;2023-05-10T06:38:09;14.60;99.90
35240;DHT22;21376;50.954;4.716;2023-05-10T06:40:41;14.90;99.90
35240;DHT22;21376;50.954;4.716;2023-05-10T06:45:36;15.10;99.90
35240;DHT22;21376;50.954;4.716;2023-05-10T06:50:48;15.00;99.90
35240;DHT22;21376;50.954;4.716;2023-05-10T06:53:16;15.00;99.90
35240;DHT22;21376;50.954;4.716;2023-05-10T06:55:45;14.90;99.90
35240;DHT22;21376;50.954;4.716;2023-05-10T06:58:11;14.90;99.90
35240;DHT22;21376;50.954;4.716;2023-05-10T07:03:13;15.30;99.90
35240;DHT22;21376;50.954;4.716;2023-05-10T07:05:38;15.50;99.90
35240;DHT22;21376;50.954;4.716;2023-05-10T07:08:04;15.70;99.90
35240;DHT22;21376;50.954;4.716;2023-05-10T07:10:30;15.70;99.90
35240;DHT22;21376;50.954;4.716;2023-05-10T07:12:57;15.70;99.90
35240;DHT22;21376;50.954;4.716;2023-05-10T07:17:51;16.00;99.90
35240;DHT22;21376;50.954;4.716;2023-05-10T07:22:48;16.10;99.90
35240;DHT22;21376;50.954;4.716;2023-05-10T07:25:15;16.30;99.90
35240;DHT22;21376;50.954;4.716;2023-05-10T07:30:26;16.40;99.90
35240;DHT22;21376;50.954;4.716;2023-05-10T07:32:54;16.40;99.90
35240;DHT22;21376;50.954;4.716;2023-05-10T07:35:23;16.50;99.90
35240;DHT22;21376;50.954;4.716;2023-05-10T07:37:55;16.60;99.90
35240;DHT22;21376;50.954;4.716;2023-05-10T07:40:24;16.80;99.90
35240;DHT22;21376;50.954;4.716;2023-05-10T07:42:50;16.20;99.90
35240;DHT22;21376;50.954;4.716;2023-05-10T07:45:18;15.70;99.90
35240;DHT22;21376;50.954;4.716;2023-05-10T07:47:54;15.30;99.90
35240;DHT22;21376;50.954;4.716;2023-05-10T07:50:26;14.90;99.90
35240;DHT22;21376;50.954;4.716;2023-05-10T07:52:54;14.70;99.90
35240;DHT22;21376;50.954;4.716;2023-05-10T07:55:20;14.60;99.90
35240;DHT22;21376;50.954;4.716;2023-05-10T08:00:24;14.50;99.90
35240;DHT22;21376;50.954;4.716;2023-05-10T08:05:20;14.20;99.90
35240;DHT22;21376;50.954;4.716;2023-05-10T08:07:46;14.30;99.90
35240;DHT22;21376;50.954;4.716;2023-05-10T08:10:11;14.20;99.90
35240;DHT22;21376;50.954;4.716;2023-05-10T08:12:40;14.10;99.90
35240;DHT22;21376;50.954;4.716;2023-05-10T08:20:12;14.30;99.90
35240;DHT22;21376;50.954;4.716;2023-05-10T08:22:50;14.30;99.90
35240;DHT22;21376;50.954;4.716;2023-05-10T08:25:31;14.40;99.90
35240;DHT22;21376;50.954;4.716;2023-05-10T08:30:49;14.50;99.90
35240;DHT22;21376;50.954;4.716;2023-05-10T08:33:15;14.70;99.90
35240;DHT22;21376;50.954;4.716;2023-05-10T08:35:42;14.70;99.90
35240;DHT22;21376;50.954;4.716;2023-05-10T08:38:07;14.50;99.90
35240;DHT22;21376;50.954;4.716;2023-05-10T08:40:33;14.40;99.90
35240;DHT22;21376;50.954;4.716;2023-05-10T08:43:05;14.30;99.90
35240;DHT22;21376;50.954;4.716;2023-05-10T08:45:32;14.30;99.90
35240;DHT22;21376;50.954;4.716;2023-05-10T08:47:57;14.20;99.90
35240;DHT22;21376;50.954;4.716;2023-05-10T08:50:39;14.40;99.90
35240;DHT22;21376;50.954;4.716;2023-05-10T08:53:21;14.40;99.90
35240;DHT22;21376;50.954;4.716;2023-05-10T08:55:52;14.50;99.90
35240;DHT22;21376;50.954;4.716;2023-05-10T08:58:28;15.00;99.90
35240;DHT22;21376;50.954;4.716;2023-05-10T09:03:22;15.10;99.90
35240;DHT22;21376;50.954;4.716;2023-05-10T09:08:20;15.70;99.90
35240;DHT22;21376;50.954;4.716;2023-05-10T09:10:47;15.70;99.90
35240;DHT22;21376;50.954;4.716;2023-05-10T09:13:14;15.90;99.90
35240;DHT22;21376;50.954;4.716;2023-05-10T09:15:43;15.70;99.90
35240;DHT22;21376;50.954;4.716;2023-05-10T09:18:12;15.80;99.90
35240;DHT22;21376;50.954;4.716;2023-05-10T09:20:38;15.70;99.90
35240;DHT22;21376;50.954;4.716;2023-05-10T09:25:44;15.70;99.90
35240;DHT22;21376;50.954;4.716;2023-05-10T09:28:10;14.90;99.90
35240;DHT22;21376;50.954;4.716;2023-05-10T09:30:37;14.70;99.90
35240;DHT22;21376;50.954;4.716;2023-05-10T09:33:04;14.90;99.90
35240;DHT22;21376;50.954;4.716;2023-05-10T09:38:04;14.70;99.90
35240;DHT22;21376;50.954;4.716;2023-05-10T09:43:18;14.80;99.90
35240;DHT22;21376;50.954;4.716;2023-05-10T09:45:43;15.00;99.90
35240;DHT22;21376;50.954;4.716;2023-05-10T10:53:25;18.30;99.90
35240;DHT22;21376;50.954;4.716;2023-05-10T11:01:19;17.80;99.90
35240;DHT22;21376;50.954;4.716;2023-05-10T11:06:39;19.90;99.90
35240;DHT22;21376;50.954;4.716;2023-05-10T11:09:09;19.40;99.90
35240;DHT22;21376;50.954;4.716;2023-05-10T11:11:48;20.30;99.90
35240;DHT22;21376;50.954;4.716;2023-05-10T11:16:46;21.30;99.90
35240;DHT22;21376;50.954;4.716;2023-05-10T11:22:16;20.90;99.90
35240;DHT22;21376;50.954;4.716;2023-05-10T11:24:56;21.80;99.90
35240;DHT22;21376;50.954;4.716;2023-05-10T11:27:25;22.50;99.90
35240;DHT22;21376;50.954;4.716;2023-05-10T11:29:52;22.30;99.90
35240;DHT22;21376;50.954;4.716;2023-05-10T11:32:20;22.20;99.90
35240;DHT22;21376;50.954;4.716;2023-05-10T11:37:17;20.90;99.90
35240;DHT22;21376;50.954;4.716;2023-05-10T11:42:18;19.60;99.90
35240;DHT22;21376;50.954;4.716;2023-05-10T11:47:12;20.50;99.90
35240;DHT22;21376;50.954;4.716;2023-05-10T11:49:39;21.00;99.90
35240;DHT22;21376;50.954;4.716;2023-05-10T11:52:09;22.70;99.90
35240;DHT22;21376;50.954;4.716;2023-05-10T11:57:08;24.60;99.90
35240;DHT22;21376;50.954;4.716;2023-05-10T12:04:38;22.60;99.90
35240;DHT22;21376;50.954;4.716;2023-05-10T12:09:36;23.10;99.90
35240;DHT22;21376;50.954;4.716;2023-05-10T12:12:03;22.60;99.90
35240;DHT22;21376;50.954;4.716;2023-05-10T12:14:29;21.60;99.90
35240;DHT22;21376;50.954;4.716;2023-05-10T12:17:01;22.10;99.90
35240;DHT22;21376;50.954;4.716;2023-05-10T12:19:36;22.60;99.90
35240;DHT22;21376;50.954;4.716;2023-05-10T12:22:06;24.50;99.90
35240;DHT22;21376;50.954;4.716;2023-05-10T12:24:36;24.90;99.90
35240;DHT22;21376;50.954;4.716;2023-05-10T12:27:12;24.60;99.90
35240;DHT22;21376;50.954;4.716;2023-05-10T12:29:46;24.80;99.90
35240;DHT22;21376;50.954;4.716;2023-05-10T12:32:13;23.90;99.90
35240;DHT22;21376;50.954;4.716;2023-05-10T12:34:41;23.10;99.90
35240;DHT22;21376;50.954;4.716;2023-05-10T12:37:10;22.60;99.90
35240;DHT22;21376;50.954;4.716;2023-05-10T12:39:47;22.40;99.90
35240;DHT22;21376;50.954;4.716;2023-05-10T12:42:31;21.90;99.90
35240;DHT22;21376;50.954;4.716;2023-05-10T12:45:00;21.30;99.90
35240;DHT22;21376;50.954;4.716;2023-05-10T12:47:26;21.50;99.90
35240;DHT22;21376;50.954;4.716;2023-05-10T12:49:55;21.60;99.90
35240;DHT22;21376;50.954;4.716;2023-05-10T12:55:19;21.40;99.90
35240;DHT22;21376;50.954;4.716;2023-05-10T12:57:46;21.50;99.90
35240;DHT22;21376;50.954;4.716;2023-05-10T13:00:13;21.10;99.90
35240;DHT22;21376;50.954;4.716;2023-05-10T13:02:41;21.00;99.90
35240;DHT22;21376;50.954;4.716;2023-05-10T13:05:07;21.50;99.90
35240;DHT22;21376;50.954;4.716;2023-05-10T13:07:36;21.60;99.90
35240;DHT22;21376;50.954;4.716;2023-05-10T13:10:01;21.90;99.90
35240;DHT22;21376;50.954;4.716;2023-05-10T13:12:27;21.10;99.90
35240;DHT22;21376;50.954;4.716;2023-05-10T13:14:55;21.10;99.90
35240;DHT22;21376;50.954;4.716;2023-05-10T13:17:21;20.80;99.90
35240;DHT22;21376;50.954;4.716;2023-05-10T13:19:47;21.30;99.90
35240;DHT22;21376;50.954;4.716;2023-05-10T13:22:13;20.50;99.90
35240;DHT22;21376;50.954;4.716;2023-05-10T13:24:38;20.40;99.90
35240;DHT22;21376;50.954;4.716;2023-05-10T13:27:04;20.40;99.90
35240;DHT22;21376;50.954;4.716;2023-05-10T13:29:31;20.50;99.90
35240;DHT22;21376;50.954;4.716;2023-05-10T13:34:29;20.50;99.90
35240;DHT22;21376;50.954;4.716;2023-05-10T13:36:54;20.80;99.90
35240;DHT22;21376;50.954;4.716;2023-05-10T13:39:21;20.90;99.90
35240;DHT22;21376;50.954;4.716;2023-05-10T13:41:47;20.40;99.90
35240;DHT22;21376;50.954;4.716;2023-05-10T13:44:14;20.30;99.90
35240;DHT22;21376;50.954;4.716;2023-05-10T13:46:40;20.50;99.90
35240;DHT22;21376;50.954;4.716;2023-05-10T13:51:35;20.20;99.90
35240;DHT22;21376;50.954;4.716;2023-05-10T13:54:01;19.90;99.90
35240;DHT22;21376;50.954;4.716;2023-05-10T14:11:56;20.00;99.90
35240;DHT22;21376;50.954;4.716;2023-05-10T14:14:23;19.40;99.90
35240;DHT22;21376;50.954;4.716;2023-05-10T14:16:51;19.40;99.90
35240;DHT22;21376;50.954;4.716;2023-05-10T14:19:19;19.30;99.90
35240;DHT22;21376;50.954;4.716;2023-05-10T14:21:45;19.20;99.90
35240;DHT22;21376;50.954;4.716;2023-05-10T14:24:11;18.90;99.90
35240;DHT22;21376;50.954;4.716;2023-05-10T14:26:37;18.80;99.90
35240;DHT22;21376;50.954;4.716;2023-05-10T14:29:02;19.00;99.90
35240;DHT22;21376;50.954;4.716;2023-05-10T14:31:31;19.40;99.90
35240;DHT22;21376;50.954;4.716;2023-05-10T14:33:57;19.50;99.90
35240;DHT22;21376;50.954;4.716;2023-05-10T14:36:23;19.80;99.90
35240;DHT22;21376;50.954;4.716;2023-05-10T14:38:48;20.10;99.90
35240;DHT22;21376;50.954;4.716;2023-05-10T14:43:43;20.00;99.90
35240;DHT22;21376;50.954;4.716;2023-05-10T14:46:08;20.20;99.90
35240;DHT22;21376;50.954;4.716;2023-05-10T14:48:34;20.20;99.90
35240;DHT22;21376;50.954;4.716;2023-05-10T14:51:01;19.90;99.90
35240;DHT22;21376;50.954;4.716;2023-05-10T14:53:28;19.80;99.90
35240;DHT22;21376;50.954;4.716;2023-05-10T14:55:53;19.70;99.90
35240;DHT22;21376;50.954;4.716;2023-05-10T14:58:19;19.80;99.90
35240;DHT22;21376;50.954;4.716;2023-05-10T15:00:46;19.60;99.90
35240;DHT22;21376;50.954;4.716;2023-05-10T15:03:11;19.70;99.90
35240;DHT22;21376;50.954;4.716;2023-05-10T15:05:37;19.80;99.90
35240;DHT22;21376;50.954;4.716;2023-05-10T15:08:03;19.50;99.90
35240;DHT22;21376;50.954;4.716;2023-05-10T15:10:30;19.70;99.90
35240;DHT22;21376;50.954;4.716;2023-05-10T15:12:55;19.50;99.90
35240;DHT22;21376;50.954;4.716;2023-05-10T15:15:21;19.30;99.90
35240;DHT22;21376;50.954;4.716;2023-05-10T15:20:16;19.40;99.90
35240;DHT22;21376;50.954;4.716;2023-05-10T15:22:42;19.20;99.90
35240;DHT22;21376;50.954;4.716;2023-05-10T15:25:09;19.50;99.90
35240;DHT22;21376;50.954;4.716;2023-05-10T15:27:35;19.50;99.90
35240;DHT22;21376;50.954;4.716;2023-05-10T15:30:00;19.10;99.90
35240;DHT22;21376;50.954;4.716;2023-05-10T15:32:26;19.10;99.90
35240;DHT22;21376;50.954;4.716;2023-05-10T15:34:52;18.70;99.90
35240;DHT22;21376;50.954;4.716;2023-05-10T15:37:21;18.50;99.90
35240;DHT22;21376;50.954;4.716;2023-05-10T15:39:54;18.30;99.90
35240;DHT22;21376;50.954;4.716;2023-05-10T15:42:41;18.30;99.90
35240;DHT22;21376;50.954;4.716;2023-05-10T15:45:15;18.30;99.90
35240;DHT22;21376;50.954;4.716;2023-05-10T15:47:52;18.20;99.90
35240;DHT22;21376;50.954;4.716;2023-05-10T15:50:20;18.10;99.90
35240;DHT22;21376;50.954;4.716;2023-05-10T15:53:05;17.90;99.90
35240;DHT22;21376;50.954;4.716;2023-05-10T15:55:31;17.70;99.90
35240;DHT22;21376;50.954;4.716;2023-05-10T15:57:57;17.50;99.90
35240;DHT22;21376;50.954;4.716;2023-05-10T16:00:24;17.60;99.90
35240;DHT22;21376;50.954;4.716;2023-05-10T16:02:52;17.40;99.90
35240;DHT22;21376;50.954;4.716;2023-05-10T16:05:23;17.20;99.90
35240;DHT22;21376;50.954;4.716;2023-05-10T16:07:49;16.60;99.90
35240;DHT22;21376;50.954;4.716;2023-05-10T16:10:14;16.30;99.90
35240;DHT22;21376;50.954;4.716;2023-05-10T16:12:48;15.70;99.90
35240;DHT22;21376;50.954;4.716;2023-05-10T16:17:44;15.30;99.90
35240;DHT22;21376;50.954;4.716;2023-05-10T16:20:10;15.20;99.90
35240;DHT22;21376;50.954;4.716;2023-05-10T16:22:37;15.10;99.90
35240;DHT22;21376;50.954;4.716;2023-05-10T16:25:03;14.90;99.90
35240;DHT22;21376;50.954;4.716;2023-05-10T16:27:31;14.80;99.90
35240;DHT22;21376;50.954;4.716;2023-05-10T16:30:05;14.80;99.90
35240;DHT22;21376;50.954;4.716;2023-05-10T16:32:31;14.60;99.90
35240;DHT22;21376;50.954;4.716;2023-05-10T16:34:57;14.60;99.90
35240;DHT22;21376;50.954;4.716;2023-05-10T16:37:25;14.60;99.90
35240;DHT22;21376;50.954;4.716;2023-05-10T16:39:51;14.60;99.90
35240;DHT22;21376;50.954;4.716;2023-05-10T16:42:19;14.70;99.90
35240;DHT22;21376;50.954;4.716;2023-05-10T16:45:01;14.60;99.90
35240;DHT22;21376;50.954;4.716;2023-05-10T16:47:39;14.60;99.90
35240;DHT22;21376;50.954;4.716;2023-05-10T16:50:06;14.90;99.90
35240;DHT22;21376;50.954;4.716;2023-05-10T16:52:33;15.00;99.90
35240;DHT22;21376;50.954;4.716;2023-05-10T16:55:00;15.00;99.90
35240;DHT22;21376;50.954;4.716;2023-05-10T16:57:26;15.10;99.90
35240;DHT22;21376;50.954;4.716;2023-05-10T16:59:55;15.10;99.90
35240;DHT22;21376;50.954;4.716;2023-05-10T17:02:24;15.20;99.90
35240;DHT22;21376;50.954;4.716;2023-05-10T17:04:49;15.20;99.90
35240;DHT22;21376;50.954;4.716;2023-05-10T17:07:23;15.30;99.90
35240;DHT22;21376;50.954;4.716;2023-05-10T17:09:52;15.20;99.90
35240;DHT22;21376;50.954;4.716;2023-05-10T17:14:48;15.10;99.90
35240;DHT22;21376;50.954;4.716;2023-05-10T17:17:15;15.10;99.90
35240;DHT22;21376;50.954;4.716;2023-05-10T17:19:43;14.90;99.90
35240;DHT22;21376;50.954;4.716;2023-05-10T17:22:12;14.90;99.90
35240;DHT22;21376;50.954;4.716;2023-05-10T17:24:38;15.00;99.90
35240;DHT22;21376;50.954;4.716;2023-05-10T17:27:07;14.90;99.90
35240;DHT22;21376;50.954;4.716;2023-05-10T17:29:35;15.10;99.90
35240;DHT22;21376;50.954;4.716;2023-05-10T17:32:01;14.90;99.90
35240;DHT22;21376;50.954;4.716;2023-05-10T17:34:38;14.80;99.90
35240;DHT22;21376;50.954;4.716;2023-05-10T17:37:04;14.90;99.90
35240;DHT22;21376;50.954;4.716;2023-05-10T17:39:30;14.90;99.90
35240;DHT22;21376;50.954;4.716;2023-05-10T17:41:56;14.90;99.90
35240;DHT22;21376;50.954;4.716;2023-05-10T17:44:24;15.00;99.90
35240;DHT22;21376;50.954;4.716;2023-05-10T17:46:52;15.00;99.90
35240;DHT22;21376;50.954;4.716;2023-05-10T17:49:18;15.00;99.90
35240;DHT22;21376;50.954;4.716;2023-05-10T17:51:46;15.00;99.90
35240;DHT22;21376;50.954;4.716;2023-05-10T17:54:12;14.90;99.90
35240;DHT22;21376;50.954;4.716;2023-05-10T17:56:39;15.00;99.90
35240;DHT22;21376;50.954;4.716;2023-05-10T17:59:09;15.10;99.90
35240;DHT22;21376;50.954;4.716;2023-05-10T18:01:35;15.30;99.90
35240;DHT22;21376;50.954;4.716;2023-05-10T18:04:01;15.30;99.90
35240;DHT22;21376;50.954;4.716;2023-05-10T18:06:38;15.40;99.90
35240;DHT22;21376;50.954;4.716;2023-05-10T18:09:06;15.50;99.90
35240;DHT22;21376;50.954;4.716;2023-05-10T18:11:36;15.40;99.90
35240;DHT22;21376;50.954;4.716;2023-05-10T18:14:03;15.10;99.90
35240;DHT22;21376;50.954;4.716;2023-05-10T18:16:29;15.00;99.90
35240;DHT22;21376;50.954;4.716;2023-05-10T18:19:01;14.80;99.90
35240;DHT22;21376;50.954;4.716;2023-05-10T18:21:27;14.60;99.90
35240;DHT22;21376;50.954;4.716;2023-05-10T18:23:54;14.70;99.90
35240;DHT22;21376;50.954;4.716;2023-05-10T18:26:23;14.70;99.90
35240;DHT22;21376;50.954;4.716;2023-05-10T18:28:50;14.90;99.90
35240;DHT22;21376;50.954;4.716;2023-05-10T18:31:16;15.00;99.90
35240;DHT22;21376;50.954;4.716;2023-05-10T18:33:41;14.60;99.90
35240;DHT22;21376;50.954;4.716;2023-05-10T18:36:08;14.60;99.90
35240;DHT22;21376;50.954;4.716;2023-05-10T18:38:35;14.50;99.90
35240;DHT22;21376;50.954;4.716;2023-05-10T18:41:01;14.40;99.90
35240;DHT22;21376;50.954;4.716;2023-05-10T18:43:30;14.20;99.90
35240;DHT22;21376;50.954;4.716;2023-05-10T18:45:58;14.20;99.90
35240;DHT22;21376;50.954;4.716;2023-05-10T18:48:25;14.40;99.90
35240;DHT22;21376;50.954;4.716;2023-05-10T18:50:58;14.40;99.90
35240;DHT22;21376;50.954;4.716;2023-05-10T18:53:26;14.40;99.90
35240;DHT22;21376;50.954;4.716;2023-05-10T19:00:55;14.40;99.90
35240;DHT22;21376;50.954;4.716;2023-05-10T19:03:32;14.60;99.90
35240;DHT22;21376;50.954;4.716;2023-05-10T19:06:00;14.60;99.90
35240;DHT22;21376;50.954;4.716;2023-05-10T19:08:25;14.50;99.90
35240;DHT22;21376;50.954;4.716;2023-05-10T19:10:52;14.50;99.90
35240;DHT22;21376;50.954;4.716;2023-05-10T19:13:22;14.50;99.90
35240;DHT22;21376;50.954;4.716;2023-05-10T19:16:05;14.50;99.90
35240;DHT22;21376;50.954;4.716;2023-05-10T19:18:33;14.50;99.90
35240;DHT22;21376;50.954;4.716;2023-05-10T19:21:10;14.50;99.90
35240;DHT22;21376;50.954;4.716;2023-05-10T19:23:39;14.50;99.90
35240;DHT22;21376;50.954;4.716;2023-05-10T19:26:07;14.40;99.90
35240;DHT22;21376;50.954;4.716;2023-05-10T19:28:43;14.40;99.90
35240;DHT22;21376;50.954;4.716;2023-05-10T19:31:12;14.40;99.90
35240;DHT22;21376;50.954;4.716;2023-05-10T19:33:38;14.20;99.90
35240;DHT22;21376;50.954;4.716;2023-05-10T19:36:09;14.00;99.90
35240;DHT22;21376;50.954;4.716;2023-05-10T19:41:08;13.80;99.90
35240;DHT22;21376;50.954;4.716;2023-05-10T19:46:11;14.10;99.90
35240;DHT22;21376;50.954;4.716;2023-05-10T19:48:40;13.80;99.90
35240;DHT22;21376;50.954;4.716;2023-05-10T19:56:21;14.20;99.90
35240;DHT22;21376;50.954;4.716;2023-05-10T19:58:47;14.30;99.90
35240;DHT22;21376;50.954;4.716;2023-05-10T20:01:13;14.40;99.90
35240;DHT22;21376;50.954;4.716;2023-05-10T20:03:38;14.40;99.90
35240;DHT22;21376;50.954;4.716;2023-05-10T20:06:05;14.50;99.90
35240;DHT22;21376;50.954;4.716;2023-05-10T20:08:31;14.40;99.90
35240;DHT22;21376;50.954;4.716;2023-05-10T20:10:58;14.20;99.90
35240;DHT22;21376;50.954;4.716;2023-05-10T20:15:58;14.10;99.90
35240;DHT22;21376;50.954;4.716;2023-05-10T20:23:30;14.20;99.90
35240;DHT22;21376;50.954;4.716;2023-05-10T20:25:59;14.40;99.90
35240;DHT22;21376;50.954;4.716;2023-05-10T20:28:25;14.50;99.90